SVA1023 OERK-OEMA
Flight info
| Callsign | SVA1023 |
|---|---|
| Flight time | 0h 59m |
| Altitude | 34000 |
| Route | IVONU1G IVONU Y216 ITSEP ITSEP1G |
| Aircraft | B789/H-SDE1E2E3FGHIJ2J3J4J5M1RWXY/LB1D1 |
Departure
| Time | 2026-04-15 12:07 |
|---|---|
| Airport | King Khalid International Airport (OERK) |
Arrival
| Time | 2026-04-15 13:07 |
|---|---|
| Airport | Prince Mohammad Bin Abdulaziz Airport (OEMA) |
| Time | Latitude | Longitude | Altitude | Speed | Heading |
|---|---|---|---|---|---|
| 2026-04-15 11:29 | 24.96365 | 46.70205 | 2065 ft | 0 kts | 296° |
| 2026-04-15 11:39 | 24.95942 | 46.70518 | 2043 ft | 0 kts | 236° |
| 2026-04-15 11:57 | 24.95949 | 46.70529 | 2051 ft | 2 kts | 237° |
| 2026-04-15 11:57 | 24.95966 | 46.70561 | 2058 ft | 2 kts | 240° |
| 2026-04-15 11:57 | 24.95974 | 46.70577 | 2053 ft | 2 kts | 244° |
| 2026-04-15 11:58 | 24.95980 | 46.70593 | 2054 ft | 2 kts | 253° |
| 2026-04-15 11:58 | 24.95982 | 46.70611 | 2053 ft | 2 kts | 284° |
| 2026-04-15 11:58 | 24.95974 | 46.70624 | 2053 ft | 1 kts | 324° |
| 2026-04-15 11:58 | 24.95972 | 46.70626 | 2053 ft | 0 kts | 327° |
| 2026-04-15 12:00 | 24.95988 | 46.70615 | 2060 ft | 6 kts | 328° |
| 2026-04-15 12:00 | 24.96050 | 46.70576 | 2054 ft | 15 kts | 331° |
| 2026-04-15 12:01 | 24.96164 | 46.70503 | 2056 ft | 23 kts | 329° |
| 2026-04-15 12:01 | 24.96323 | 46.70404 | 2054 ft | 28 kts | 330° |
| 2026-04-15 12:01 | 24.96507 | 46.70291 | 2058 ft | 31 kts | 331° |
| 2026-04-15 12:01 | 24.96691 | 46.70176 | 2057 ft | 30 kts | 330° |
| 2026-04-15 12:02 | 24.96837 | 46.70084 | 2056 ft | 10 kts | 330° |
| 2026-04-15 12:02 | 24.96843 | 46.70080 | 2059 ft | 1 kts | 330° |
| 2026-04-15 12:02 | 24.96851 | 46.70075 | 2060 ft | 0 kts | 330° |
| 2026-04-15 12:02 | 24.96857 | 46.70074 | 2060 ft | 2 kts | 345° |
| 2026-04-15 12:03 | 24.96891 | 46.70086 | 2058 ft | 9 kts | 38° |
| 2026-04-15 12:03 | 24.96936 | 46.70166 | 2057 ft | 15 kts | 60° |
| 2026-04-15 12:03 | 24.96983 | 46.70256 | 2053 ft | 9 kts | 60° |
| 2026-04-15 12:03 | 24.97024 | 46.70274 | 2058 ft | 7 kts | 343° |
| 2026-04-15 12:04 | 24.97075 | 46.70247 | 2058 ft | 9 kts | 330° |
| 2026-04-15 12:04 | 24.97134 | 46.70211 | 2053 ft | 10 kts | 330° |
| 2026-04-15 12:04 | 24.97203 | 46.70167 | 2056 ft | 12 kts | 330° |
| 2026-04-15 12:04 | 24.97280 | 46.70119 | 2069 ft | 13 kts | 330° |
| 2026-04-15 12:05 | 24.97363 | 46.70067 | 2072 ft | 14 kts | 330° |
| 2026-04-15 12:05 | 24.97450 | 46.70012 | 2072 ft | 15 kts | 330° |
| 2026-04-15 12:05 | 24.97517 | 46.69972 | 2055 ft | 5 kts | 346° |
| 2026-04-15 12:05 | 24.97540 | 46.69980 | 2054 ft | 5 kts | 29° |
| 2026-04-15 12:06 | 24.97570 | 46.70020 | 2058 ft | 10 kts | 58° |
| 2026-04-15 12:06 | 24.97613 | 46.70099 | 2052 ft | 14 kts | 59° |
| 2026-04-15 12:06 | 24.97654 | 46.70202 | 2052 ft | 12 kts | 98° |
| 2026-04-15 12:06 | 24.97594 | 46.70262 | 2053 ft | 19 kts | 151° |
| 2026-04-15 12:07 | 24.97285 | 46.70455 | 2053 ft | 93 kts | 150° |
| 2026-04-15 12:07 | 24.96532 | 46.70931 | 2047 ft | 151 kts | 150° |
| 2026-04-15 12:07 | 24.95529 | 46.71540 | 2332 ft | 167 kts | 157° |
| 2026-04-15 12:07 | 24.94488 | 46.72123 | 2942 ft | 173 kts | 148° |
| 2026-04-15 12:08 | 24.93539 | 46.72899 | 3733 ft | 171 kts | 135° |
| 2026-04-15 12:08 | 24.92681 | 46.73800 | 4396 ft | 172 kts | 138° |
| 2026-04-15 12:08 | 24.91787 | 46.74674 | 5037 ft | 173 kts | 140° |
| 2026-04-15 12:08 | 24.90815 | 46.75550 | 5511 ft | 186 kts | 141° |
| 2026-04-15 12:09 | 24.89796 | 46.76468 | 6097 ft | 198 kts | 139° |
| 2026-04-15 12:09 | 24.88684 | 46.77496 | 6581 ft | 221 kts | 139° |
| 2026-04-15 12:09 | 24.87437 | 46.78615 | 7054 ft | 243 kts | 146° |
| 2026-04-15 12:09 | 24.85933 | 46.79472 | 7858 ft | 248 kts | 156° |
| 2026-04-15 12:10 | 24.84327 | 46.80257 | 8553 ft | 264 kts | 154° |
| 2026-04-15 12:10 | 24.82638 | 46.81272 | 8971 ft | 290 kts | 150° |
| 2026-04-15 12:10 | 24.80846 | 46.82364 | 9833 ft | 296 kts | 152° |
| 2026-04-15 12:10 | 24.78953 | 46.83349 | 10425 ft | 312 kts | 165° |
| 2026-04-15 12:11 | 24.76751 | 46.83901 | 10665 ft | 338 kts | 168° |
| 2026-04-15 12:11 | 24.74374 | 46.84554 | 10897 ft | 364 kts | 166° |
| 2026-04-15 12:11 | 24.71911 | 46.85273 | 11671 ft | 367 kts | 167° |
| 2026-04-15 12:11 | 24.69412 | 46.85977 | 12444 ft | 373 kts | 168° |
| 2026-04-15 12:12 | 24.66833 | 46.86308 | 13149 ft | 374 kts | 187° |
| 2026-04-15 12:12 | 24.64319 | 46.85663 | 13942 ft | 372 kts | 206° |
| 2026-04-15 12:12 | 24.62149 | 46.84153 | 14590 ft | 371 kts | 225° |
| 2026-04-15 12:12 | 24.60546 | 46.81945 | 15253 ft | 371 kts | 242° |
| 2026-04-15 12:13 | 24.59276 | 46.79456 | 15846 ft | 376 kts | 243° |
| 2026-04-15 12:13 | 24.58041 | 46.76948 | 16493 ft | 380 kts | 244° |
| 2026-04-15 12:13 | 24.56771 | 46.74370 | 17106 ft | 386 kts | 244° |
| 2026-04-15 12:13 | 24.55465 | 46.71769 | 17703 ft | 391 kts | 243° |
| 2026-04-15 12:14 | 24.54348 | 46.69046 | 18269 ft | 391 kts | 256° |
| 2026-04-15 12:14 | 24.53916 | 46.66092 | 18797 ft | 392 kts | 271° |
| 2026-04-15 12:14 | 24.54192 | 46.63122 | 19352 ft | 391 kts | 286° |
| 2026-04-15 12:14 | 24.55157 | 46.60332 | 19833 ft | 392 kts | 300° |
| 2026-04-15 12:15 | 24.56527 | 46.57777 | 20325 ft | 394 kts | 302° |
| 2026-04-15 12:15 | 24.57942 | 46.55192 | 20884 ft | 396 kts | 302° |
| 2026-04-15 12:15 | 24.59382 | 46.52594 | 21379 ft | 399 kts | 303° |
| 2026-04-15 12:15 | 24.60825 | 46.49970 | 21887 ft | 402 kts | 302° |
| 2026-04-15 12:16 | 24.62271 | 46.47321 | 22378 ft | 404 kts | 302° |
| 2026-04-15 12:16 | 24.63725 | 46.44661 | 22836 ft | 407 kts | 303° |
| 2026-04-15 12:16 | 24.65193 | 46.41982 | 23295 ft | 410 kts | 303° |
| 2026-04-15 12:16 | 24.66669 | 46.39289 | 23713 ft | 412 kts | 303° |
| 2026-04-15 12:17 | 24.68149 | 46.36582 | 24089 ft | 414 kts | 303° |
| 2026-04-15 12:17 | 24.69631 | 46.33865 | 24475 ft | 415 kts | 303° |
| 2026-04-15 12:17 | 24.71104 | 46.31169 | 24862 ft | 416 kts | 303° |
| 2026-04-15 12:17 | 24.72596 | 46.28439 | 25253 ft | 417 kts | 302° |
| 2026-04-15 12:18 | 24.74089 | 46.25701 | 25602 ft | 418 kts | 302° |
| 2026-04-15 12:18 | 24.75080 | 46.23884 | 25841 ft | 419 kts | 302° |
| 2026-04-15 12:18 | 24.76584 | 46.21125 | 26198 ft | 421 kts | 302° |
| 2026-04-15 12:18 | 24.78091 | 46.18358 | 26577 ft | 422 kts | 302° |
| 2026-04-15 12:19 | 24.79603 | 46.15581 | 26943 ft | 423 kts | 302° |
| 2026-04-15 12:19 | 24.81120 | 46.12794 | 27309 ft | 425 kts | 302° |
| 2026-04-15 12:19 | 24.82639 | 46.09999 | 27676 ft | 426 kts | 302° |
| 2026-04-15 12:19 | 24.84165 | 46.07192 | 28034 ft | 428 kts | 302° |
| 2026-04-15 12:20 | 24.85695 | 46.04373 | 28366 ft | 430 kts | 302° |
| 2026-04-15 12:20 | 24.87232 | 46.01544 | 28746 ft | 431 kts | 302° |
| 2026-04-15 12:20 | 24.88774 | 45.98701 | 29108 ft | 433 kts | 302° |
| 2026-04-15 12:20 | 24.90320 | 45.95850 | 29489 ft | 434 kts | 301° |
| 2026-04-15 12:21 | 24.91861 | 45.93006 | 30047 ft | 431 kts | 301° |
| 2026-04-15 12:21 | 24.93397 | 45.90168 | 30523 ft | 429 kts | 301° |
| 2026-04-15 12:21 | 24.94906 | 45.87380 | 30967 ft | 427 kts | 301° |
| 2026-04-15 12:21 | 24.96427 | 45.84569 | 31470 ft | 425 kts | 301° |
| 2026-04-15 12:22 | 24.97936 | 45.81778 | 31973 ft | 422 kts | 302° |
| 2026-04-15 12:22 | 24.99434 | 45.79005 | 32481 ft | 420 kts | 302° |
| 2026-04-15 12:22 | 25.00927 | 45.76239 | 32973 ft | 419 kts | 302° |
| 2026-04-15 12:22 | 25.02415 | 45.73482 | 33493 ft | 416 kts | 302° |
| 2026-04-15 12:23 | 25.03757 | 45.70667 | 34011 ft | 415 kts | 294° |
| 2026-04-15 12:23 | 25.04696 | 45.67625 | 34113 ft | 423 kts | 286° |
| 2026-04-15 12:23 | 25.05180 | 45.64415 | 34112 ft | 425 kts | 277° |
| 2026-04-15 12:24 | 25.04970 | 45.57961 | 34096 ft | 424 kts | 270° |
| 2026-04-15 12:24 | 25.04516 | 45.51483 | 34088 ft | 423 kts | 270° |
| 2026-04-15 12:25 | 25.04055 | 45.45012 | 34090 ft | 423 kts | 270° |
| 2026-04-15 12:25 | 25.03594 | 45.38532 | 34095 ft | 424 kts | 270° |
| 2026-04-15 12:26 | 25.03127 | 45.32053 | 34092 ft | 424 kts | 270° |
| 2026-04-15 12:26 | 25.02659 | 45.25562 | 34094 ft | 425 kts | 270° |
| 2026-04-15 12:27 | 25.02186 | 45.19065 | 34091 ft | 425 kts | 269° |
| 2026-04-15 12:27 | 25.01711 | 45.12568 | 34095 ft | 425 kts | 269° |
| 2026-04-15 12:28 | 25.01236 | 45.06107 | 34092 ft | 426 kts | 269° |
| 2026-04-15 12:28 | 25.00753 | 44.99592 | 34083 ft | 426 kts | 269° |
| 2026-04-15 12:29 | 25.00269 | 44.93089 | 34079 ft | 426 kts | 269° |
| 2026-04-15 12:29 | 24.99780 | 44.86567 | 34080 ft | 426 kts | 269° |
| 2026-04-15 12:30 | 24.99291 | 44.80066 | 34076 ft | 426 kts | 269° |
| 2026-04-15 12:30 | 24.98800 | 44.73599 | 34081 ft | 425 kts | 269° |
| 2026-04-15 12:31 | 24.98306 | 44.67111 | 34082 ft | 425 kts | 269° |
| 2026-04-15 12:31 | 24.97808 | 44.60613 | 34084 ft | 424 kts | 269° |
| 2026-04-15 12:32 | 24.97307 | 44.54126 | 34079 ft | 424 kts | 269° |
| 2026-04-15 12:32 | 24.96809 | 44.47701 | 34080 ft | 423 kts | 269° |
| 2026-04-15 12:33 | 24.96570 | 44.41236 | 34091 ft | 422 kts | 271° |
| 2026-04-15 12:33 | 24.96347 | 44.34776 | 34088 ft | 421 kts | 271° |
| 2026-04-15 12:34 | 24.96135 | 44.28310 | 34087 ft | 421 kts | 271° |
| 2026-04-15 12:34 | 24.95914 | 44.21861 | 34085 ft | 421 kts | 271° |
| 2026-04-15 12:35 | 24.95694 | 44.15429 | 34083 ft | 420 kts | 271° |
| 2026-04-15 12:35 | 24.95469 | 44.09000 | 34078 ft | 419 kts | 271° |
| 2026-04-15 12:36 | 24.95243 | 44.02577 | 34073 ft | 419 kts | 271° |
| 2026-04-15 12:36 | 24.95019 | 43.96214 | 34077 ft | 418 kts | 271° |
| 2026-04-15 12:37 | 24.94790 | 43.89809 | 34077 ft | 418 kts | 271° |
| 2026-04-15 12:37 | 24.94559 | 43.83409 | 34084 ft | 418 kts | 271° |
| 2026-04-15 12:38 | 24.94325 | 43.77012 | 34083 ft | 418 kts | 271° |
| 2026-04-15 12:38 | 24.94088 | 43.70612 | 34086 ft | 417 kts | 271° |
| 2026-04-15 12:39 | 24.93849 | 43.64219 | 34082 ft | 417 kts | 270° |
| 2026-04-15 12:39 | 24.93607 | 43.57837 | 34080 ft | 416 kts | 270° |
| 2026-04-15 12:40 | 24.93363 | 43.51459 | 34079 ft | 416 kts | 270° |
| 2026-04-15 12:40 | 24.93116 | 43.45083 | 34083 ft | 416 kts | 270° |
| 2026-04-15 12:41 | 24.92868 | 43.38751 | 34079 ft | 416 kts | 270° |
| 2026-04-15 12:41 | 24.92616 | 43.32376 | 34080 ft | 416 kts | 270° |
| 2026-04-15 12:42 | 24.92361 | 43.26001 | 34079 ft | 416 kts | 270° |
| 2026-04-15 12:42 | 24.92104 | 43.19641 | 34075 ft | 415 kts | 270° |
| 2026-04-15 12:43 | 24.91846 | 43.13326 | 34074 ft | 415 kts | 270° |
| 2026-04-15 12:43 | 24.91584 | 43.06979 | 34075 ft | 414 kts | 270° |
| 2026-04-15 12:44 | 24.91320 | 43.00640 | 34072 ft | 414 kts | 270° |
| 2026-04-15 12:44 | 24.91053 | 42.94292 | 34075 ft | 414 kts | 270° |
| 2026-04-15 12:45 | 24.90783 | 42.87955 | 34071 ft | 413 kts | 270° |
| 2026-04-15 12:45 | 24.90511 | 42.81617 | 34071 ft | 413 kts | 270° |
| 2026-04-15 12:46 | 24.90238 | 42.75330 | 34069 ft | 413 kts | 270° |
| 2026-04-15 12:46 | 24.89962 | 42.69013 | 34071 ft | 413 kts | 270° |
| 2026-04-15 12:47 | 24.89682 | 42.62695 | 34072 ft | 413 kts | 270° |
| 2026-04-15 12:47 | 24.89400 | 42.56373 | 34067 ft | 413 kts | 270° |
| 2026-04-15 12:48 | 24.89115 | 42.50053 | 34059 ft | 413 kts | 270° |
| 2026-04-15 12:48 | 24.88828 | 42.43743 | 34059 ft | 412 kts | 270° |
| 2026-04-15 12:49 | 24.88540 | 42.37475 | 34061 ft | 411 kts | 269° |
| 2026-04-15 12:49 | 24.87851 | 42.31195 | 34068 ft | 413 kts | 266° |
| 2026-04-15 12:50 | 24.87123 | 42.24924 | 34065 ft | 413 kts | 265° |
| 2026-04-15 12:50 | 24.85643 | 42.12524 | 34244 ft | 406 kts | 265° |
| 2026-04-15 12:50 | 24.83995 | 41.98814 | 34067 ft | 411 kts | 265° |
| 2026-04-15 12:51 | 24.80986 | 41.73956 | 34073 ft | 412 kts | 265° |
| 2026-04-15 12:51 | 24.77920 | 41.48987 | 34068 ft | 409 kts | 265° |
| 2026-04-15 12:52 | 24.77203 | 41.43194 | 34070 ft | 407 kts | 265° |
| 2026-04-15 12:52 | 24.76435 | 41.37016 | 34070 ft | 407 kts | 266° |
| 2026-04-15 12:52 | 24.76052 | 41.33944 | 33637 ft | 403 kts | 265° |
| 2026-04-15 12:53 | 24.75673 | 41.30904 | 33016 ft | 400 kts | 265° |
| 2026-04-15 12:53 | 24.75179 | 41.26954 | 32223 ft | 398 kts | 265° |
| 2026-04-15 12:53 | 24.73658 | 41.14837 | 29617 ft | 404 kts | 264° |
| 2026-04-15 12:53 | 24.72678 | 41.03669 | 26737 ft | 408 kts | 276° |
| 2026-04-15 12:54 | 24.72988 | 41.00631 | 25771 ft | 387 kts | 277° |
| 2026-04-15 12:54 | 24.73244 | 40.97764 | 24885 ft | 366 kts | 274° |
| 2026-04-15 12:54 | 24.73381 | 40.95045 | 24050 ft | 347 kts | 272° |
| 2026-04-15 12:54 | 24.73513 | 40.92451 | 23203 ft | 332 kts | 274° |
| 2026-04-15 12:55 | 24.73680 | 40.89953 | 22340 ft | 325 kts | 274° |
| 2026-04-15 12:55 | 24.73855 | 40.87416 | 21525 ft | 339 kts | 273° |
| 2026-04-15 12:55 | 24.74020 | 40.84802 | 20733 ft | 345 kts | 273° |
| 2026-04-15 12:55 | 24.74205 | 40.81766 | 19931 ft | 349 kts | 273° |
| 2026-04-15 12:56 | 24.74826 | 40.71907 | 18624 ft | 319 kts | 272° |
| 2026-04-15 12:56 | 24.75423 | 40.62267 | 17424 ft | 314 kts | 272° |
| 2026-04-15 12:56 | 24.76009 | 40.52715 | 16248 ft | 311 kts | 272° |
| 2026-04-15 12:56 | 24.76583 | 40.43269 | 15088 ft | 307 kts | 272° |
| 2026-04-15 12:57 | 24.77136 | 40.34059 | 13985 ft | 301 kts | 271° |
| 2026-04-15 12:57 | 24.77679 | 40.24943 | 12837 ft | 298 kts | 271° |
| 2026-04-15 12:57 | 24.78211 | 40.15944 | 11744 ft | 290 kts | 271° |
| 2026-04-15 12:57 | 24.78706 | 40.07466 | 10740 ft | 259 kts | 271° |
| 2026-04-15 12:58 | 24.79153 | 39.99715 | 9896 ft | 250 kts | 270° |
| 2026-04-15 12:58 | 24.79595 | 39.92009 | 8984 ft | 252 kts | 270° |
| 2026-04-15 12:58 | 24.80005 | 39.84805 | 8231 ft | 238 kts | 270° |
| 2026-04-15 12:58 | 24.80129 | 39.82527 | 7979 ft | 244 kts | 270° |
| 2026-04-15 12:59 | 24.80326 | 39.78826 | 7623 ft | 238 kts | 269° |
| 2026-04-15 12:59 | 24.80407 | 39.76973 | 7283 ft | 248 kts | 269° |
| 2026-04-15 12:59 | 24.80488 | 39.75133 | 7115 ft | 240 kts | 269° |
| 2026-04-15 13:00 | 24.80573 | 39.73276 | 6990 ft | 242 kts | 270° |
| 2026-04-15 13:00 | 24.80659 | 39.71438 | 6716 ft | 248 kts | 270° |
| 2026-04-15 13:00 | 24.80748 | 39.69555 | 6560 ft | 241 kts | 270° |
| 2026-04-15 13:00 | 24.80836 | 39.67659 | 6302 ft | 249 kts | 270° |
| 2026-04-15 13:01 | 24.80805 | 39.65803 | 6179 ft | 238 kts | 252° |
| 2026-04-15 13:01 | 24.79907 | 39.64336 | 6081 ft | 233 kts | 208° |
| 2026-04-15 13:01 | 24.78422 | 39.63903 | 5990 ft | 214 kts | 172° |
| 2026-04-15 13:01 | 24.77045 | 39.64358 | 5685 ft | 203 kts | 152° |
| 2026-04-15 13:02 | 24.75855 | 39.65131 | 5423 ft | 193 kts | 144° |
| 2026-04-15 13:02 | 24.74782 | 39.65958 | 5131 ft | 186 kts | 142° |
| 2026-04-15 13:02 | 24.73788 | 39.66782 | 4886 ft | 171 kts | 141° |
| 2026-04-15 13:02 | 24.72836 | 39.67408 | 4624 ft | 153 kts | 159° |
| 2026-04-15 13:03 | 24.71793 | 39.67536 | 4389 ft | 142 kts | 175° |
| 2026-04-15 13:03 | 24.70801 | 39.67590 | 4410 ft | 150 kts | 170° |
| 2026-04-15 13:03 | 24.69793 | 39.67719 | 4429 ft | 143 kts | 166° |
| 2026-04-15 13:03 | 24.68790 | 39.67874 | 4507 ft | 147 kts | 167° |
| 2026-04-15 13:04 | 24.67748 | 39.68095 | 4347 ft | 155 kts | 163° |
| 2026-04-15 13:04 | 24.66714 | 39.68321 | 4036 ft | 147 kts | 163° |
| 2026-04-15 13:04 | 24.65721 | 39.68528 | 3811 ft | 142 kts | 165° |
| 2026-04-15 13:04 | 24.64733 | 39.68746 | 3654 ft | 147 kts | 163° |
| 2026-04-15 13:05 | 24.63744 | 39.68968 | 3459 ft | 146 kts | 165° |
| 2026-04-15 13:05 | 24.62745 | 39.69185 | 3274 ft | 146 kts | 164° |
| 2026-04-15 13:05 | 24.61749 | 39.69405 | 3095 ft | 143 kts | 163° |
| 2026-04-15 13:05 | 24.60778 | 39.69620 | 2878 ft | 143 kts | 162° |
| 2026-04-15 13:06 | 24.60134 | 39.69766 | 2736 ft | 143 kts | 165° |
| 2026-04-15 13:06 | 24.59142 | 39.69994 | 2529 ft | 148 kts | 165° |
| 2026-04-15 13:06 | 24.58131 | 39.70219 | 2319 ft | 149 kts | 163° |
| 2026-04-15 13:06 | 24.57126 | 39.70439 | 2140 ft | 136 kts | 166° |
| 2026-04-15 13:07 | 24.56379 | 39.70606 | 2128 ft | 80 kts | 170° |
| 2026-04-15 13:07 | 24.56015 | 39.70679 | 2120 ft | 39 kts | 169° |
| 2026-04-15 13:07 | 24.55761 | 39.70733 | 2113 ft | 37 kts | 169° |
| 2026-04-15 13:07 | 24.55515 | 39.70786 | 2108 ft | 35 kts | 168° |
| 2026-04-15 13:08 | 24.55335 | 39.70846 | 2105 ft | 18 kts | 132° |
| 2026-04-15 13:08 | 24.55261 | 39.70920 | 2104 ft | 10 kts | 141° |
| 2026-04-15 13:08 | 24.55219 | 39.70971 | 2104 ft | 7 kts | 117° |
| 2026-04-15 13:08 | 24.55214 | 39.71016 | 2104 ft | 5 kts | 82° |
| 2026-04-15 13:09 | 24.55221 | 39.71056 | 2105 ft | 5 kts | 78° |
| 2026-04-15 13:09 | 24.55229 | 39.71102 | 2105 ft | 7 kts | 78° |
| 2026-04-15 13:09 | 24.55240 | 39.71161 | 2105 ft | 9 kts | 79° |
| 2026-04-15 13:09 | 24.55241 | 39.71216 | 2105 ft | 6 kts | 105° |
| 2026-04-15 13:10 | 24.55237 | 39.71250 | 2105 ft | 4 kts | 88° |
| 2026-04-15 13:10 | 24.55241 | 39.71281 | 2106 ft | 4 kts | 78° |
| 2026-04-15 13:10 | 24.55247 | 39.71310 | 2106 ft | 4 kts | 79° |
| 2026-04-15 13:10 | 24.55248 | 39.71317 | 2106 ft | 1 kts | 79° |
| 2026-04-15 13:11 | 24.55249 | 39.71324 | 2106 ft | 0 kts | 79° |